x

Nanakwa Shoal (46181) Weather Station

3:00pm - Thu 30th Jul 2015 All times are PDT. -7 hours from GMT.

  • Peak Period 2s
  • Wind
    13mph, 16mph gusts
  • Sea Temp 63°f
  • Air Temp 64°f
  • Sea Pressure 1021.8mb
  • Nanakwa Shoal
  • Nanakwa Shoal

More Historic Weather Station data

Upgrade to MSW Pro to gain access to the past 30 days of data for over 8000 Wavebouys and Weather Stations around the globe.

Join Pro

Comparision Forecast

View Surf forecast
   
Thu 07/30 3:00pm  -  2s 13 16 mph 1021.8mb 63f 64f
2:00pm 0.3ft 2s 4
mph
1022.1mb 62f 63f
1:00pm  -  3s 7 9 mph 1022.3mb 62f 61f
12:00pm  -  2s 4
mph
1022.6mb 62f 60f
11:00am  -  2s 2
mph
1022.8mb 62f 59f
10:00am  -  2s 2 4 mph 1023.2mb 62f 59f
9:00am  -  2s 7
mph
1023.5mb 62f 57f
8:00am  -  2s 7 9 mph 1023.7mb 62f 57f
7:00am  -  7s 9 11 mph 1023.7mb 61f 56f
6:00am  -  6s 4 7 mph 1023.7mb 61f 56f
5:00am  -  6s 7
mph
1023.6mb 61f 57f
4:00am  -  6s 7
mph
1023.4mb 61f 58f
3:00am  -  6s 4 7 mph 1023.2mb 62f 58f
2:00am  -  6s  -  2 mph 1023.2mb 62f 58f
1:00am  -  5s 2 4 mph 1023.1mb 62f 58f
12:00am  -  6s 2 4 mph 1023.2mb 62f 59f
Wed 07/29 11:00pm  -  6s  -  2 mph 1023.1mb 61f 60f
10:00pm  -  6s  -  2 mph 1023.3mb 61f 60f
9:00pm  -  6s 7 9 mph 1023.3mb 62f 63f
8:00pm 0.3ft 2s 9 11 mph 1023.6mb 62f 63f
7:00pm 0.3ft 2s 9
mph
1023.9mb 62f 63f
6:00pm 0.3ft 2s 9 11 mph 1024.2mb 62f 64f
5:00pm 0.3ft 2s 9 13 mph 1024.5mb 62f 63f
4:00pm 0.3ft 2s 9 11 mph 1024.8mb 62f 64f
3:00pm 0.3ft 2s 9 13 mph 1024.9mb 62f 63f
2:00pm 0.3ft 2s 9
mph
1024.8mb 62f 62f
1:00pm 0.3ft 2s 9 11 mph 1024.5mb 62f 61f
12:00pm 0.3ft 2s 9 11 mph 1024.6mb 62f 60f
11:00am 0.3ft 2s 7 9 mph 1024.5mb 61f 60f
10:00am 0.3ft 2s 9 11 mph 1024.3mb 61f 59f
8:00am 0.3ft 2s 7 9 mph 1024.3mb 61f 58f
7:00am 0.3ft 2s 9
mph
1024.1mb 61f 58f
6:00am 0.3ft 2s 11 13 mph 1023.8mb 61f 58f
5:00am 0.3ft 2s 9 13 mph 1023.8mb 60f 59f
4:00am 0.3ft 2s 9 11 mph 1023.4mb 61f 59f
3:00am 0.7ft 2s 16 18 mph 1023.1mb 60f 59f
2:00am 0.7ft 2s 18 20 mph 1022.7mb 60f 59f
1:00am 0.7ft 2s 16 18 mph 1022.5mb 60f 59f
12:00am 0.7ft 2s 13 18 mph 1022.5mb 60f 59f
Tue 07/28 11:00pm 0.3ft 2s 11 16 mph 1022.1mb 61f 59f
10:00pm 0.3ft 2s 13 18 mph 1021.7mb 61f 59f
9:00pm 0.3ft 2s 16 20 mph 1021.3mb 62f 61f
8:00pm 0.3ft 2s 18 20 mph 1021.2mb 62f 61f
7:00pm 0.7ft 2s 16 18 mph 1021.4mb 62f 62f
6:00pm 0.7ft 2s 18 22 mph 1021.5mb 62f 62f
5:00pm 0.7ft 2s 18 20 mph 1021.4mb 62f 64f
4:00pm 0.7ft 2s 18 22 mph 1021.6mb 62f 63f
3:00pm 0.7ft 2s 18 20 mph 1021.3mb 62f 63f
2:00pm 1ft 2s 20 25 mph 1021.2mb 61f 63f
1:00pm 1ft 3s 20 25 mph 1020.7mb 61f 62f
12:00pm 1ft 3s 20 25 mph 1020.3mb 61f 62f
11:00am 0.7ft 2s 16 27 mph 1020.3mb 61f 63f
10:00am 0.7ft 2s 16 22 mph 1020.1mb 61f 61f
9:00am 0.7ft 2s 16 20 mph 1020.1mb 61f 60f
8:00am 0.7ft 2s 13 16 mph 1020.2mb 61f 60f
7:00am 0.3ft 2s 16 18 mph 1020mb 61f 60f
6:00am 0.3ft 2s 7 11 mph 1020mb 61f 60f
5:00am 0.3ft 2s 9 16 mph 1019.9mb 61f 59f
4:00am 0.3ft 2s 7 9 mph 1020.2mb 61f 59f
3:00am 0.3ft 2s 11 13 mph 1020.2mb 61f 59f
2:00am 0.3ft 2s 16 18 mph 1020.1mb 61f 59f
1:00am 0.3ft 2s 11 13 mph 1020.1mb 61f 59f
12:00am 0.3ft 2s 9 11 mph 1020.1mb 60f 59f
Mon 07/27 11:00pm 0.3ft 2s 11 13 mph 1020.1mb 61f 58f
10:00pm 0.3ft 2s 13 16 mph 1020.4mb 61f 59f
9:00pm 0.7ft 2s 11 13 mph 1020.5mb 61f 59f
8:00pm 0.3ft 2s 13 18 mph 1020.5mb 61f 60f
7:00pm 0.3ft 2s 13 18 mph 1020.5mb 61f 60f
6:00pm 0.3ft 2s 9 13 mph 1020.7mb 61f 60f
5:00pm 0.7ft 3s 13 18 mph 1020.6mb 61f 59f
3:00pm 0.3ft 2s 11 18 mph 1020mb 62f 61f
2:00pm 0.3ft 2s 9 13 mph 1020mb 62f 60f
1:00pm 0.3ft 2s 11 13 mph 1020.3mb 62f 60f
12:00pm 0.3ft 2s 9 13 mph 1020.6mb 61f 59f
11:00am 0.3ft 2s 7 9 mph 1020.5mb 61f 58f
10:00am 0.3ft 2s 9
mph
1020.5mb 61f 58f
9:00am 0.3ft 2s 7 9 mph 1020.3mb 61f 58f
8:00am 0.3ft 2s 7 11 mph 1020.2mb 61f 58f
7:00am 0.3ft 2s 9 11 mph 1020.1mb 61f 58f
6:00am 0.3ft 2s 11 13 mph 1019.9mb 61f 59f
5:00am 0.3ft 2s 13 16 mph 1019.6mb 62f 59f
4:00am 0.7ft 2s 13 16 mph 1019.5mb 62f 59f
3:00am 0.3ft 2s 11 13 mph 1019.6mb 62f 59f
2:00am 0.3ft 2s 9 13 mph 1019.4mb 61f 60f
1:00am 0.7ft 2s 11 16 mph 1019.3mb 60f 60f
12:00am 0.7ft 2s 9 13 mph 1019.2mb 60f 60f